Morgantown Muni-Walter L Bill Hart Fld Information

FAA: MGW - ICAO: KMGW

Morgantown Muni-Walter L Bill Hart Fld (Airport) Location

State West Virginia
County Monongalia
City Morgantown
Morgantown Muni-Walter L Bill Hart Fld (Airport) is 3 miles east of Morgantown, WV.
Latitude 39-38-36.9435N
Longitude 079-55-03.1691W
Elevation 1,243ft

Morgantown Muni-Walter L Bill Hart Fld METARs

METAR KMGW 281453Z 09007KT 10SM CLR 14/09 A2979 RMK AO2 SLP088 T01440089 58018
Altimeter 29.79"
Temperature 14.4°C (57.9°F)
Wind 90° at 7KT
Clouds Skies are clear.
Visibility 10.0mi
Time observed: 2021-10-28T14:53:00Z

Morgantown Muni-Walter L Bill Hart Fld (Airport) Details

Status Operational
Activation June 1938
Ownership Public
Usage Public
Chart CINCINNATI
ATC on-site Yes
Beacon schedule sunset-sunrise
Beacon color clear green

Morgantown Muni-Walter L Bill Hart Fld (Airport) Contacts

Owner CITY OF MORGANTOWN
Owner address 389 SPRUCE ST, MORGANTOWN, WV 26505
Owner phone 304-284-7405
Manager GEORGE C. BOYLES
Manager address 1 HOSPITAL PLAZA, GRAFTON, WV 26354
Manager phone 304-265-0400

Morgantown Muni-Walter L Bill Hart Fld Radio Frequencies

Morgantown Muni-Walter L Bill Hart Fld (Airport) Radio Frequencies

UNICOM 122.95
Common traffic advisory frequency (CTAF) 125.1